Time;durP1;ratioP1;P1;durP2;ratioP2;P2;SDS_P1;SDS_P2;PMS_P1;PMS_P2;Temp;Humidity;BMP_temperature;BMP_pressure;BME280_temperature;BME280_humidity;BME280_pressure;Samples;Min_cycle;Max_cycle;Signal;HPM_P1;HPM_P2
2022/05/21 00:01:32;;;;;;;6.22;4.32;;;19.40;99.90;;;;;;5028829;28;20431;-87
2022/05/21 00:03:58;;;;;;;4.28;3.53;;;19.30;99.90;;;;;;5031996;28;20033;-88
2022/05/21 00:06:24;;;;;;;10.60;4.40;;;19.30;99.90;;;;;;5028818;28;20017;-87
2022/05/21 00:08:49;;;;;;;6.50;4.30;;;19.20;99.90;;;;;;5049498;28;20024;-88
2022/05/21 00:11:15;;;;;;;6.47;3.70;;;19.20;99.90;;;;;;5030524;28;20036;-88
2022/05/21 00:13:40;;;;;;;6.95;3.55;;;19.10;99.90;;;;;;5029746;28;20044;-87
2022/05/21 00:16:06;;;;;;;8.13;3.42;;;19.00;99.90;;;;;;5027997;28;20560;-88
2022/05/21 00:18:32;;;;;;;9.38;4.05;;;19.00;99.90;;;;;;5049382;28;20025;-88
2022/05/21 00:20:58;;;;;;;4.45;3.13;;;18.90;99.90;;;;;;5025355;28;20030;-88
2022/05/21 00:23:32;;;;;;;7.47;3.28;;;18.90;99.90;;;;;;5026269;28;20079;-88
2022/05/21 00:26:05;;;;;;;4.85;3.17;;;18.90;99.90;;;;;;5030395;28;20033;-87
2022/05/21 00:28:35;;;;;;;4.60;3.50;;;18.80;99.90;;;;;;5028001;28;20025;-86
2022/05/21 00:31:02;;;;;;;5.65;3.58;;;18.70;99.90;;;;;;5046207;28;20128;-88
2022/05/21 00:33:29;;;;;;;4.05;3.20;;;18.70;99.90;;;;;;5030461;28;20396;-89
2022/05/21 00:35:54;;;;;;;5.03;3.30;;;18.70;99.90;;;;;;5026302;28;20117;-88
2022/05/21 00:38:21;;;;;;;5.03;3.33;;;18.60;99.90;;;;;;5030581;28;20108;-88
2022/05/21 00:40:48;;;;;;;6.95;3.88;;;18.70;99.90;;;;;;5034242;28;20159;-88
2022/05/21 00:43:32;;;;;;;7.25;4.15;;;18.70;99.90;;;;;;5028802;28;20033;-88
2022/05/21 00:45:59;;;;;;;5.45;3.50;;;18.60;99.90;;;;;;5027722;28;20036;-88
2022/05/21 00:48:25;;;;;;;3.75;3.35;;;18.60;99.90;;;;;;5027574;28;20020;-88
2022/05/21 00:50:52;;;;;;;4.65;3.38;;;18.60;99.90;;;;;;5027384;28;20030;-88
2022/05/21 00:53:18;;;;;;;6.20;3.67;;;18.60;99.90;;;;;;5029596;28;20116;-87
2022/05/21 00:55:45;;;;;;;7.60;3.25;;;18.50;99.90;;;;;;5021517;28;20080;-87
2022/05/21 01:01:01;;;;;;;3.97;2.97;;;18.40;99.90;;;;;;5037716;28;20037;-88
2022/05/21 01:03:29;;;;;;;5.55;3.38;;;18.40;99.90;;;;;;5048329;28;20071;-88
2022/05/21 01:05:57;;;;;;;4.75;3.30;;;18.30;99.90;;;;;;5026857;28;20080;-88
2022/05/21 01:08:22;;;;;;;4.75;3.30;;;18.30;99.90;;;;;;5041202;28;20797;-88
2022/05/21 01:10:53;;;;;;;7.65;3.35;;;18.30;99.90;;;;;;5044969;28;20029;-88
2022/05/21 01:13:22;;;;;;;6.22;3.42;;;18.20;99.90;;;;;;5041551;28;20108;-88
2022/05/21 01:15:51;;;;;;;6.30;3.17;;;18.20;99.90;;;;;;5029541;28;20024;-89
2022/05/21 01:18:17;;;;;;;4.75;3.55;;;18.10;99.90;;;;;;5031308;28;20064;-89
2022/05/21 01:20:47;;;;;;;3.95;3.17;;;18.10;99.90;;;;;;5039655;28;20474;-88
2022/05/21 01:23:14;;;;;;;4.50;2.80;;;18.10;99.90;;;;;;5029146;28;20035;-88
2022/05/21 01:25:41;;;;;;;3.50;2.58;;;18.10;99.90;;;;;;5032994;28;20021;-88
2022/05/21 01:28:11;;;;;;;3.50;2.60;;;18.00;99.90;;;;;;5035691;28;20031;-89
2022/05/21 01:30:39;;;;;;;5.50;2.42;;;18.00;99.90;;;;;;5030179;28;20476;-88
2022/05/21 01:33:07;;;;;;;8.68;2.20;;;18.00;99.90;;;;;;5029622;28;20086;-88
2022/05/21 01:35:33;;;;;;;7.00;1.90;;;18.00;99.90;;;;;;5018413;28;20026;-88
2022/05/21 01:37:59;;;;;;;2.10;1.90;;;17.90;99.90;;;;;;5041745;28;20480;-87
2022/05/21 01:40:25;;;;;;;2.42;1.90;;;17.90;99.90;;;;;;5031158;28;20447;-89
2022/05/21 01:45:36;;;;;;;4.70;1.90;;;17.90;99.90;;;;;;5036202;28;20029;-88
2022/05/21 01:48:03;;;;;;;2.08;1.85;;;17.90;99.90;;;;;;5028542;28;20021;-89
2022/05/21 01:50:32;;;;;;;3.35;1.80;;;17.80;99.90;;;;;;5024500;28;20056;-87
2022/05/21 01:52:57;;;;;;;3.70;1.92;;;17.80;99.90;;;;;;5042956;28;20508;-88
2022/05/21 01:55:24;;;;;;;3.20;1.90;;;17.70;99.90;;;;;;5029712;28;20028;-89
2022/05/21 01:57:50;;;;;;;4.35;2.08;;;17.70;99.90;;;;;;5032724;28;20469;-88
2022/05/21 02:00:17;;;;;;;4.00;1.73;;;17.70;99.90;;;;;;5034342;28;20033;-88
2022/05/21 02:02:43;;;;;;;4.88;2.58;;;17.70;99.90;;;;;;5027244;28;20067;-89
2022/05/21 02:05:09;;;;;;;2.92;2.42;;;17.60;99.90;;;;;;5036934;28;20048;-88
2022/05/21 02:07:35;;;;;;;3.70;2.30;;;17.50;99.90;;;;;;5033926;28;20031;-88
2022/05/21 02:10:02;;;;;;;3.17;2.10;;;17.50;99.90;;;;;;5027554;28;20017;-88
2022/05/21 02:12:27;;;;;;;6.60;2.20;;;17.50;99.90;;;;;;5033563;28;20129;-89
2022/05/21 02:14:56;;;;;;;5.18;2.28;;;17.50;99.90;;;;;;5029903;28;20059;-89
2022/05/21 02:17:23;;;;;;;3.08;2.28;;;17.50;99.90;;;;;;5033148;28;20477;-88
2022/05/21 02:19:49;;;;;;;4.18;2.35;;;17.40;99.90;;;;;;5040502;28;20404;-89
2022/05/21 02:22:16;;;;;;;2.63;2.42;;;17.40;99.90;;;;;;5049230;28;20032;-88
2022/05/21 02:24:41;;;;;;;5.22;2.63;;;17.30;99.90;;;;;;5033520;28;20021;-88
2022/05/21 02:27:11;;;;;;;2.50;2.30;;;17.20;99.90;;;;;;5038238;28;20401;-89
2022/05/21 02:29:37;;;;;;;3.00;2.40;;;17.20;99.90;;;;;;5025016;28;20257;-88
2022/05/21 02:32:04;;;;;;;5.10;2.10;;;17.10;99.90;;;;;;5031572;28;20138;-89
2022/05/21 02:34:30;;;;;;;2.72;2.47;;;17.10;99.90;;;;;;5030369;28;20096;-89
2022/05/21 02:39:41;;;;;;;12.43;2.45;;;17.00;99.90;;;;;;5053424;28;20032;-88
2022/05/21 02:42:54;;;;;;;3.05;2.75;;;16.90;99.90;;;;;;5032482;28;20404;-87
2022/05/21 02:44:53;;;;;;;3.00;2.72;;;16.90;99.90;;;;;;5041593;28;20057;-88
2022/05/21 02:47:19;;;;;;;4.15;2.60;;;16.70;99.90;;;;;;5020162;28;20430;-89
2022/05/21 02:49:44;;;;;;;2.50;2.30;;;16.60;99.90;;;;;;5029258;28;20056;-87
2022/05/21 02:52:10;;;;;;;2.80;2.47;;;16.50;99.90;;;;;;5047341;28;20035;-89
2022/05/21 02:54:36;;;;;;;2.70;2.38;;;16.50;99.90;;;;;;5030684;28;20117;-89
2022/05/21 02:57:02;;;;;;;2.63;2.40;;;16.50;99.90;;;;;;5028958;28;20116;-89
2022/05/21 02:59:30;;;;;;;5.80;2.72;;;16.50;99.90;;;;;;5025280;28;20033;-89
2022/05/21 03:01:56;;;;;;;2.60;2.30;;;16.50;99.90;;;;;;5031179;28;20060;-88
2022/05/21 03:04:22;;;;;;;4.10;2.63;;;16.60;99.90;;;;;;5051538;28;20477;-88
2022/05/21 03:06:47;;;;;;;4.32;2.90;;;16.60;99.90;;;;;;5037731;28;20397;-89
2022/05/21 03:11:57;;;;;;;5.95;2.75;;;16.70;99.90;;;;;;5043862;28;20429;-88
2022/05/21 03:14:23;;;;;;;3.97;2.60;;;16.60;99.90;;;;;;5035062;28;20017;-88
2022/05/21 03:16:48;;;;;;;5.85;2.70;;;16.50;99.90;;;;;;5032273;28;20053;-89
2022/05/21 03:19:14;;;;;;;3.88;2.80;;;16.50;99.90;;;;;;5042387;28;20040;-88
2022/05/21 03:21:39;;;;;;;3.88;2.90;;;16.50;99.90;;;;;;5043647;28;20029;-89
2022/05/21 03:24:05;;;;;;;4.35;2.60;;;16.50;99.90;;;;;;5031989;28;20044;-88
2022/05/21 03:26:31;;;;;;;4.38;2.80;;;16.40;99.90;;;;;;5024695;28;20117;-88
2022/05/21 03:28:57;;;;;;;4.68;2.95;;;16.40;99.90;;;;;;5050533;28;20400;-89
2022/05/21 03:31:23;;;;;;;9.35;3.35;;;16.30;99.90;;;;;;5018734;28;20029;-89
2022/05/21 03:33:49;;;;;;;3.08;2.78;;;16.20;99.90;;;;;;5028154;28;20029;-88
2022/05/21 03:36:15;;;;;;;2.92;2.67;;;16.20;99.90;;;;;;5016131;28;20478;-89
2022/05/21 03:38:40;;;;;;;3.38;2.78;;;16.10;99.90;;;;;;5030683;28;20389;-89
2022/05/21 03:41:06;;;;;;;5.45;3.00;;;16.00;99.90;;;;;;5046360;28;20148;-87
2022/05/21 03:43:31;;;;;;;4.28;2.95;;;16.00;99.90;;;;;;5033991;28;20028;-89
2022/05/21 03:45:57;;;;;;;3.95;2.80;;;15.90;99.90;;;;;;5048432;28;20029;-90
2022/05/21 03:48:23;;;;;;;3.25;2.67;;;15.90;99.90;;;;;;5031501;28;20480;-88
2022/05/21 03:50:48;;;;;;;4.60;2.47;;;15.80;99.90;;;;;;5031047;28;20097;-89
2022/05/21 03:53:16;;;;;;;4.80;2.90;;;15.80;99.90;;;;;;5031873;28;20103;-89
2022/05/21 03:55:44;;;;;;;2.90;2.70;;;15.80;99.90;;;;;;5029802;28;20036;-89
2022/05/21 03:58:10;;;;;;;2.60;2.40;;;15.70;99.90;;;;;;5023892;28;20103;-89
2022/05/21 04:00:38;;;;;;;3.05;2.75;;;15.70;99.90;;;;;;5027865;28;20558;-89
2022/05/21 04:03:04;;;;;;;3.25;2.90;;;15.70;99.90;;;;;;5028069;28;20025;-89
2022/05/21 04:05:29;;;;;;;2.00;1.90;;;15.60;99.90;;;;;;5031669;28;21292;-89
2022/05/21 04:07:55;;;;;;;4.45;2.40;;;15.50;99.90;;;;;;5032516;28;20025;-89
2022/05/21 04:10:21;;;;;;;3.22;2.90;;;15.50;99.90;;;;;;5026430;28;20463;-89
2022/05/21 04:12:47;;;;;;;3.85;2.40;;;15.50;99.90;;;;;;5032387;28;20119;-89
2022/05/21 04:15:13;;;;;;;2.63;2.42;;;15.40;99.90;;;;;;5027671;28;20095;-88
2022/05/21 04:17:38;;;;;;;7.75;2.75;;;15.40;99.90;;;;;;5043342;28;20033;-89
2022/05/21 04:20:06;;;;;;;3.33;2.60;;;15.40;99.90;;;;;;5032613;28;20024;-90
2022/05/21 04:22:33;;;;;;;3.33;2.55;;;15.30;99.90;;;;;;5022694;28;20037;-89
2022/05/21 04:24:58;;;;;;;4.28;3.10;;;15.30;99.90;;;;;;5027223;28;20027;-89
2022/05/21 04:27:24;;;;;;;5.35;2.95;;;15.20;99.90;;;;;;5029315;28;20388;-88
2022/05/21 04:29:50;;;;;;;5.30;4.20;;;15.20;99.90;;;;;;5032441;28;20353;-89
2022/05/21 04:32:15;;;;;;;4.30;3.25;;;15.20;99.90;;;;;;5029736;28;20032;-89
2022/05/21 04:34:41;;;;;;;3.25;2.95;;;15.20;99.90;;;;;;5032559;28;20036;-89
2022/05/21 04:37:07;;;;;;;6.80;3.38;;;15.20;99.90;;;;;;5054906;28;20534;-89
2022/05/21 04:39:32;;;;;;;6.15;3.25;;;15.20;99.90;;;;;;5027686;28;20114;-89
2022/05/21 04:42:00;;;;;;;5.13;3.30;;;15.20;99.90;;;;;;5032114;28;20033;-89
2022/05/21 04:44:31;;;;;;;5.55;3.28;;;15.30;99.90;;;;;;5023891;28;20108;-88
2022/05/21 04:46:57;;;;;;;5.78;3.50;;;15.40;99.90;;;;;;5027875;28;20111;-86
2022/05/21 04:49:23;;;;;;;4.75;3.25;;;15.40;99.90;;;;;;5018674;28;20017;-88
2022/05/21 04:51:49;;;;;;;4.22;3.28;;;15.40;99.90;;;;;;5028171;28;20025;-89
2022/05/21 04:54:14;;;;;;;3.60;3.30;;;15.50;99.90;;;;;;5045205;28;20068;-87
2022/05/21 04:56:40;;;;;;;4.50;3.70;;;15.50;99.90;;;;;;5016538;28;20490;-87
2022/05/21 04:59:09;;;;;;;5.15;2.97;;;15.50;99.90;;;;;;5047836;28;20044;-88
2022/05/21 05:01:35;;;;;;;3.53;3.17;;;15.50;99.90;;;;;;5061287;28;20020;-88
2022/05/21 05:04:01;;;;;;;3.95;3.53;;;15.60;99.90;;;;;;5026062;28;20397;-88
2022/05/21 05:06:26;;;;;;;4.95;3.42;;;15.60;99.90;;;;;;5023547;28;20021;-88
2022/05/21 05:08:52;;;;;;;6.50;3.30;;;15.70;99.90;;;;;;5027469;28;20026;-89
2022/05/21 05:11:18;;;;;;;4.35;3.13;;;15.70;99.90;;;;;;5023035;28;20052;-89
2022/05/21 05:13:43;;;;;;;4.20;3.03;;;15.80;99.90;;;;;;5032849;28;20023;-89
2022/05/21 05:16:09;;;;;;;5.97;3.33;;;15.80;99.90;;;;;;5031005;28;20052;-89
2022/05/21 05:18:35;;;;;;;5.50;3.58;;;15.90;99.90;;;;;;5030329;28;20021;-89
2022/05/21 05:21:01;;;;;;;5.47;3.05;;;15.90;99.90;;;;;;5041791;28;20429;-90
2022/05/21 05:23:28;;;;;;;3.00;2.70;;;15.90;99.90;;;;;;5031216;28;20559;-89
2022/05/21 05:25:53;;;;;;;4.90;3.03;;;16.00;99.90;;;;;;5027860;28;20025;-89
2022/05/21 05:28:21;;;;;;;3.50;2.67;;;16.00;99.90;;;;;;5030122;28;20464;-89
2022/05/21 05:30:47;;;;;;;3.95;2.78;;;16.00;99.90;;;;;;5032573;28;20056;-88
2022/05/21 05:33:13;;;;;;;4.63;2.58;;;16.00;99.90;;;;;;5023890;28;20083;-87
2022/05/21 05:35:39;;;;;;;3.67;2.75;;;15.80;99.90;;;;;;5034521;28;20053;-88
2022/05/21 05:38:10;;;;;;;3.60;3.05;;;15.80;99.90;;;;;;5029597;28;20052;-86
2022/05/21 05:40:38;;;;;;;3.92;3.25;;;15.80;99.90;;;;;;5034435;28;20437;-88
2022/05/21 05:43:04;;;;;;;3.33;2.88;;;15.80;99.90;;;;;;5036341;28;20087;-88
2022/05/21 05:45:30;;;;;;;3.40;2.47;;;15.80;99.90;;;;;;5034149;28;20021;-88
2022/05/21 05:47:56;;;;;;;4.93;2.70;;;15.80;99.90;;;;;;5034210;28;20028;-89
2022/05/21 05:50:22;;;;;;;3.95;2.80;;;15.80;99.90;;;;;;5034723;28;20104;-88
2022/05/21 05:52:47;;;;;;;4.20;3.60;;;15.80;99.90;;;;;;5034601;28;20117;-88
2022/05/21 05:55:13;;;;;;;3.58;3.28;;;15.70;99.90;;;;;;5031967;28;20405;-89
2022/05/21 05:57:39;;;;;;;3.40;2.90;;;15.60;99.90;;;;;;5035467;28;20025;-88
2022/05/21 06:00:07;;;;;;;4.05;3.10;;;15.60;99.90;;;;;;5035369;28;20059;-87
2022/05/21 06:03:15;;;;;;;6.18;3.53;;;15.50;99.90;;;;;;5028643;28;20055;-88
2022/05/21 06:05:22;;;;;;;6.45;2.78;;;15.50;99.90;;;;;;5033863;28;20044;-88
2022/05/21 06:08:00;;;;;;;5.10;3.45;;;15.50;99.90;;;;;;5034753;28;20504;-88
2022/05/21 06:10:31;;;;;;;3.08;2.80;;;15.50;99.90;;;;;;5044406;28;20021;-88
2022/05/21 06:12:58;;;;;;;3.63;2.40;;;15.60;99.90;;;;;;5031306;28;20469;-87
2022/05/21 06:15:24;;;;;;;5.25;2.83;;;15.60;99.90;;;;;;5042799;28;22337;-87
2022/05/21 06:17:51;;;;;;;3.97;2.40;;;15.60;99.90;;;;;;5032479;28;20037;-89
2022/05/21 06:20:19;;;;;;;3.00;2.47;;;15.70;99.90;;;;;;5029441;28;20025;-88
2022/05/21 06:22:44;;;;;;;2.97;2.28;;;15.70;99.90;;;;;;5031044;28;20036;-88
2022/05/21 06:25:17;;;;;;;8.13;2.30;;;15.70;99.90;;;;;;5052847;28;20029;-89
2022/05/21 06:27:49;;;;;;;2.30;2.10;;;15.80;99.90;;;;;;5036376;28;20021;-87
2022/05/21 06:30:16;;;;;;;3.30;2.45;;;15.80;99.90;;;;;;5032992;28;20029;-88
2022/05/21 06:32:42;;;;;;;2.45;2.25;;;15.90;99.90;;;;;;5041244;28;20505;-89
2022/05/21 06:35:09;;;;;;;2.60;2.33;;;16.00;99.90;;;;;;5030636;28;20061;-89
2022/05/21 06:37:35;;;;;;;2.63;2.42;;;16.00;99.90;;;;;;5016769;28;20103;-87
2022/05/21 06:40:02;;;;;;;3.35;2.42;;;16.00;99.90;;;;;;5042270;28;20111;-88
2022/05/21 06:42:27;;;;;;;3.17;2.70;;;16.00;99.90;;;;;;5028549;28;20037;-89
2022/05/21 06:44:53;;;;;;;2.97;2.72;;;16.00;99.90;;;;;;5030280;28;20020;-89
2022/05/21 06:47:19;;;;;;;5.10;2.90;;;16.00;99.90;;;;;;5029414;28;20036;-87
2022/05/21 06:49:45;;;;;;;3.25;2.50;;;16.00;99.90;;;;;;5025325;28;20032;-87
2022/05/21 06:52:11;;;;;;;3.47;2.55;;;16.10;99.90;;;;;;5031230;28;20033;-89
2022/05/21 06:54:36;;;;;;;5.53;2.28;;;16.20;99.90;;;;;;5025421;28;20728;-88
2022/05/21 06:57:08;;;;;;;2.40;2.00;;;16.20;99.90;;;;;;5024786;28;20053;-86
2022/05/21 06:59:34;;;;;;;3.90;2.00;;;16.30;99.90;;;;;;5044483;28;20030;-89
2022/05/21 07:01:59;;;;;;;3.33;1.83;;;16.30;99.90;;;;;;5020469;28;20401;-88
2022/05/21 07:09:57;;;;;;;2.28;1.38;;;16.50;99.90;;;;;;5027356;28;20102;-87
2022/05/21 07:12:23;;;;;;;2.70;1.48;;;16.50;99.90;;;;;;4996418;28;20054;-86
2022/05/21 07:14:48;;;;;;;3.58;1.52;;;16.50;99.90;;;;;;5030404;28;20033;-87
2022/05/21 07:17:16;;;;;;;1.27;1.10;;;16.70;99.90;;;;;;5028146;28;20171;-85
2022/05/21 07:19:42;;;;;;;2.28;1.48;;;16.90;99.90;;;;;;5023409;28;20025;-86
2022/05/21 07:22:08;;;;;;;1.75;1.23;;;17.20;99.80;;;;;;5028375;28;20036;-87
2022/05/21 07:24:38;;;;;;;2.17;1.20;;;17.40;99.50;;;;;;5030410;28;20096;-86
2022/05/21 07:27:03;;;;;;;1.98;1.20;;;17.50;98.70;;;;;;5028349;28;20610;-86
2022/05/21 07:29:29;;;;;;;2.22;1.05;;;17.70;98.20;;;;;;5022118;28;20022;-87
2022/05/21 07:31:55;;;;;;;7.10;1.45;;;17.80;97.80;;;;;;5019476;28;20401;-86
2022/05/21 07:34:21;;;;;;;1.73;0.93;;;17.80;97.50;;;;;;5026564;28;20449;-87
2022/05/21 07:36:47;;;;;;;1.17;1.02;;;17.80;97.60;;;;;;5048196;28;20075;-87
2022/05/21 07:39:12;;;;;;;1.75;1.33;;;17.80;97.60;;;;;;5027201;28;20030;-87
2022/05/21 07:41:38;;;;;;;2.10;1.10;;;17.90;97.20;;;;;;5031065;28;20076;-87
2022/05/21 07:44:04;;;;;;;2.80;1.00;;;18.00;97.00;;;;;;5032237;28;20014;-87
2022/05/21 07:46:29;;;;;;;2.92;1.00;;;18.10;96.90;;;;;;5050394;28;20021;-87
2022/05/21 07:48:55;;;;;;;3.35;1.10;;;18.30;96.60;;;;;;5051999;28;20019;-87
2022/05/21 07:51:20;;;;;;;2.08;1.27;;;18.40;96.60;;;;;;5026893;28;20075;-86
2022/05/21 07:53:46;;;;;;;1.30;1.00;;;18.60;96.10;;;;;;5033764;28;20039;-88
2022/05/21 07:56:11;;;;;;;1.73;1.00;;;18.70;95.80;;;;;;5033150;28;20108;-88
2022/05/21 07:58:39;;;;;;;2.80;1.10;;;18.80;95.40;;;;;;5032373;28;20029;-86
2022/05/21 08:01:04;;;;;;;2.55;1.33;;;18.90;95.10;;;;;;5051774;28;20096;-86
2022/05/21 08:03:30;;;;;;;2.67;1.08;;;19.00;94.60;;;;;;5033402;28;20129;-87
2022/05/21 08:05:55;;;;;;;3.30;0.98;;;19.10;94.90;;;;;;5033528;28;20021;-87
2022/05/21 08:08:22;;;;;;;1.35;0.82;;;19.40;94.70;;;;;;5032999;28;20025;-87
2022/05/21 08:10:48;;;;;;;1.52;1.20;;;19.60;93.70;;;;;;5055882;28;20030;-87
2022/05/21 08:13:16;;;;;;;1.42;0.90;;;19.60;92.30;;;;;;5048455;28;20032;-87
2022/05/21 08:15:42;;;;;;;2.03;1.15;;;19.50;92.00;;;;;;5030061;28;20099;-87
2022/05/21 08:18:08;;;;;;;10.65;4.97;;;19.50;92.20;;;;;;5031982;28;20444;-87
2022/05/21 08:20:36;;;;;;;2.10;0.77;;;19.70;92.50;;;;;;5029069;28;20055;-88
2022/05/21 08:28:30;;;;;;;2.65;0.70;;;19.50;92.00;;;;;;5048349;28;20393;-86
2022/05/21 08:30:56;;;;;;;2.25;0.90;;;19.70;91.70;;;;;;5030930;28;20029;-88
2022/05/21 08:33:24;;;;;;;2.83;1.00;;;19.90;91.10;;;;;;5033313;28;20397;-87
2022/05/21 08:35:50;;;;;;;1.00;0.63;;;20.00;90.40;;;;;;5018393;28;20038;-87
2022/05/21 08:38:16;;;;;;;2.17;0.80;;;20.10;90.00;;;;;;5022575;28;20036;-85
2022/05/21 08:40:57;;;;;;;2.63;1.33;;;20.30;90.40;;;;;;5033429;28;20025;-87
2022/05/21 08:43:58;;;;;;;2.47;0.80;;;20.50;89.50;;;;;;5050854;28;20025;-88
2022/05/21 08:46:38;;;;;;;1.45;0.70;;;20.60;88.60;;;;;;5038803;28;20272;-87
2022/05/21 08:49:06;;;;;;;1.60;0.80;;;20.80;87.70;;;;;;5049439;28;20021;-88
2022/05/21 08:51:40;;;;;;;1.55;0.70;;;20.90;87.30;;;;;;5026864;28;20017;-87
2022/05/21 08:54:06;;;;;;;1.92;0.52;;;21.00;85.50;;;;;;5031473;28;20453;-87
2022/05/21 08:56:32;;;;;;;2.15;0.80;;;21.10;84.70;;;;;;5032652;28;20053;-87
2022/05/21 08:59:03;;;;;;;1.02;0.70;;;21.10;84.60;;;;;;5025347;28;20057;-87
2022/05/21 09:01:32;;;;;;;1.77;0.68;;;21.20;82.70;;;;;;5025359;28;20025;-88
2022/05/21 09:04:04;;;;;;;2.45;0.60;;;21.20;82.70;;;;;;5031114;28;20053;-88
2022/05/21 09:06:39;;;;;;;1.20;0.77;;;21.20;82.10;;;;;;5030108;28;20056;-88
2022/05/21 09:09:08;;;;;;;3.55;0.73;;;21.50;82.00;;;;;;5049157;28;20021;-88
2022/05/21 09:11:50;;;;;;;3.70;0.90;;;21.70;80.80;;;;;;5044556;28;20036;-89
2022/05/21 09:14:29;;;;;;;2.83;0.70;;;22.00;81.30;;;;;;5016423;28;20042;-88
2022/05/21 09:16:55;;;;;;;6.25;1.02;;;22.60;81.70;;;;;;5011109;28;20026;-88
2022/05/21 09:19:37;;;;;;;2.78;0.80;;;23.30;80.90;;;;;;5029314;28;20032;-87
2022/05/21 09:22:06;;;;;;;2.83;0.90;;;23.70;77.70;;;;;;5021792;28;20086;-88
2022/05/21 09:24:32;;;;;;;3.10;1.90;;;24.40;75.50;;;;;;5029886;28;20032;-88
2022/05/21 09:26:58;;;;;;;5.78;0.93;;;24.30;74.20;;;;;;5044109;28;20494;-88
2022/05/21 09:29:26;;;;;;;3.75;1.15;;;25.00;72.70;;;;;;5045162;28;20091;-88
2022/05/21 09:31:55;;;;;;;3.45;0.85;;;25.20;71.30;;;;;;5029905;28;20025;-89
2022/05/21 09:34:28;;;;;;;2.47;0.80;;;25.40;69.90;;;;;;5028633;28;20038;-86
2022/05/21 09:36:55;;;;;;;1.75;0.95;;;25.90;65.80;;;;;;5030096;28;20464;-88
2022/05/21 09:39:30;;;;;;;1.98;0.70;;;26.10;64.00;;;;;;5047108;28;20036;-86
2022/05/21 09:45:23;;;;;;;2.22;0.80;;;27.40;59.90;;;;;;5050439;28;20040;-88
2022/05/21 09:48:06;;;;;;;0.80;0.60;;;28.00;60.20;;;;;;5028466;28;20044;-88
2022/05/21 09:50:53;;;;;;;1.60;0.70;;;27.30;60.40;;;;;;5032244;28;20024;-88
2022/05/21 09:53:37;;;;;;;2.28;0.70;;;26.50;60.50;;;;;;5030772;28;20451;-89
2022/05/21 09:56:18;;;;;;;1.88;0.80;;;26.70;60.30;;;;;;5030826;28;20028;-88
2022/05/21 09:58:46;;;;;;;0.50;0.50;;;28.50;57.80;;;;;;5031021;28;20115;-88
2022/05/21 10:01:36;;;;;;;2.08;0.70;;;29.70;54.70;;;;;;5031648;28;20087;-89
2022/05/21 10:04:15;;;;;;;1.05;0.75;;;30.40;52.90;;;;;;5050899;28;20024;-88
2022/05/21 10:06:46;;;;;;;2.78;0.60;;;31.00;50.50;;;;;;5013336;28;20022;-88
2022/05/21 10:12:06;;;;;;;0.80;0.73;;;32.00;48.90;;;;;;5043921;28;20040;-87
2022/05/21 10:14:42;;;;;;;1.38;0.73;;;32.60;49.10;;;;;;5041516;28;20029;-89
2022/05/21 10:17:22;;;;;;;2.50;0.50;;;33.50;48.20;;;;;;5031862;28;20052;-89
2022/05/21 10:19:55;;;;;;;5.00;1.00;;;34.10;47.00;;;;;;5025997;28;20029;-89
2022/05/21 10:22:57;;;;;;;2.00;0.70;;;34.50;45.60;;;;;;5028346;28;20033;-88
2022/05/21 10:25:29;;;;;;;2.45;0.68;;;34.00;46.20;;;;;;5035031;28;20017;-88
2022/05/21 10:28:26;;;;;;;3.45;0.80;;;34.10;45.30;;;;;;5035929;28;20514;-88
2022/05/21 10:31:20;;;;;;;1.88;0.80;;;34.10;44.60;;;;;;5049110;28;20108;-89
2022/05/21 10:34:04;;;;;;;4.15;1.30;;;33.70;44.90;;;;;;5053891;22;20485;-89
2022/05/21 15:04:03;;;;;;;0.77;0.63;;;22.20;59.10;;;;;;5057584;22;20071;-89
2022/05/21 15:06:32;;;;;;;2.20;1.05;;;22.20;59.30;;;;;;5062906;28;20400;-88
2022/05/21 15:09:00;;;;;;;2.75;0.75;;;22.10;59.00;;;;;;5069414;28;20495;-88
2022/05/21 15:11:27;;;;;;;3.08;0.90;;;22.10;59.10;;;;;;5052490;28;20032;-89
2022/05/21 15:13:53;;;;;;;5.90;0.80;;;22.00;59.10;;;;;;5049413;28;20029;-89
2022/05/21 15:16:19;;;;;;;3.00;0.70;;;21.90;59.60;;;;;;5044459;28;20042;-88
2022/05/21 15:18:45;;;;;;;2.22;0.80;;;21.90;58.90;;;;;;5051634;28;20089;-89
2022/05/21 15:21:33;;;;;;;2.00;0.77;;;21.80;59.40;;;;;;5056702;28;20441;-87
2022/05/21 15:23:58;;;;;;;3.65;0.73;;;21.90;59.40;;;;;;5045814;28;20028;-87
2022/05/21 15:26:25;;;;;;;4.28;0.80;;;21.90;59.00;;;;;;5052763;28;20154;-89
2022/05/21 15:28:52;;;;;;;2.95;0.63;;;21.90;59.10;;;;;;5051588;28;20025;-88
2022/05/21 15:31:19;;;;;;;1.63;0.80;;;21.90;59.30;;;;;;5051809;28;20052;-88
2022/05/21 15:33:45;;;;;;;2.63;0.93;;;21.90;59.10;;;;;;5051848;28;20328;-88
2022/05/21 15:36:11;;;;;;;4.47;1.05;;;22.00;59.30;;;;;;5056035;28;20064;-89
2022/05/21 15:38:36;;;;;;;3.88;1.10;;;22.00;59.30;;;;;;5050067;28;20040;-90
2022/05/21 15:41:02;;;;;;;3.05;0.80;;;22.00;59.70;;;;;;5050874;28;20111;-89
2022/05/21 15:43:28;;;;;;;1.60;0.70;;;22.10;59.60;;;;;;5056961;28;20028;-90
2022/05/21 15:45:55;;;;;;;4.55;0.98;;;22.10;59.50;;;;;;5049258;28;20128;-89
2022/05/21 15:48:20;;;;;;;1.75;0.95;;;22.10;59.50;;;;;;5049513;28;20021;-88
2022/05/21 15:50:47;;;;;;;2.83;0.70;;;22.10;59.80;;;;;;5051243;28;20035;-89
2022/05/21 15:53:15;;;;;;;3.22;0.75;;;22.10;59.70;;;;;;5049216;28;20096;-86
2022/05/21 15:55:42;;;;;;;2.55;0.98;;;22.10;59.80;;;;;;5051710;28;20016;-86
2022/05/21 15:58:09;;;;;;;4.22;0.80;;;22.10;59.70;;;;;;5067756;28;20017;-86
2022/05/21 16:00:39;;;;;;;3.13;0.88;;;22.10;59.70;;;;;;5073802;28;20041;-88
2022/05/21 16:03:05;;;;;;;2.15;0.77;;;22.10;59.70;;;;;;5069818;28;20040;-85
2022/05/21 16:05:31;;;;;;;1.50;0.80;;;22.00;59.90;;;;;;5065648;28;20087;-88
2022/05/21 16:07:57;;;;;;;5.50;0.95;;;22.00;60.00;;;;;;5039115;28;20031;-90
2022/05/21 16:10:23;;;;;;;3.15;0.90;;;21.90;60.10;;;;;;5048961;28;20482;-89
2022/05/21 16:12:49;;;;;;;7.43;3.17;;;21.90;60.10;;;;;;5041022;28;20040;-88
2022/05/21 16:15:24;;;;;;;1.90;0.98;;;21.90;60.40;;;;;;5071469;28;20024;-87
2022/05/21 16:17:50;;;;;;;3.08;1.00;;;21.90;60.20;;;;;;5048773;28;20032;-87
2022/05/21 16:20:17;;;;;;;1.45;1.10;;;21.90;60.30;;;;;;5071850;28;20024;-88
2022/05/21 16:22:42;;;;;;;2.10;0.90;;;21.90;60.10;;;;;;5049440;28;20036;-88
2022/05/21 16:25:10;;;;;;;1.10;1.00;;;21.90;60.20;;;;;;5065702;28;20032;-88
2022/05/21 16:27:35;;;;;;;3.78;0.77;;;21.80;60.20;;;;;;5049478;28;20017;-88
2022/05/21 16:30:01;;;;;;;2.72;0.80;;;21.90;60.40;;;;;;5048877;28;20438;-87
2022/05/21 16:32:29;;;;;;;1.17;0.70;;;21.90;60.50;;;;;;5053444;28;20050;-88
2022/05/21 16:34:56;;;;;;;3.30;0.90;;;21.90;60.40;;;;;;5076127;22;20045;-90
2022/05/21 16:37:22;;;;;;;1.60;0.80;;;21.90;60.30;;;;;;5034218;28;20446;-90
2022/05/21 16:39:48;;;;;;;5.38;0.90;;;21.80;60.50;;;;;;5032219;28;20357;-89
2022/05/21 16:42:15;;;;;;;3.63;0.90;;;21.80;60.60;;;;;;5027863;28;20036;-91
2022/05/21 16:44:42;;;;;;;5.50;0.90;;;21.80;61.20;;;;;;5013892;28;20083;-91
2022/05/21 16:47:08;;;;;;;2.83;0.82;;;21.80;60.80;;;;;;5032299;28;20017;-89
2022/05/21 16:49:34;;;;;;;1.92;0.85;;;21.70;60.70;;;;;;5055784;28;20491;-89
2022/05/21 16:52:02;;;;;;;2.53;1.20;;;21.70;60.70;;;;;;5053746;28;20025;-92
2022/05/21 16:54:29;;;;;;;2.30;1.40;;;21.70;60.70;;;;;;5041133;28;20028;-89
2022/05/21 16:56:55;;;;;;;6.95;1.10;;;21.60;60.90;;;;;;5062237;28;20040;-89
2022/05/21 16:59:21;;;;;;;1.92;0.95;;;21.60;61.00;;;;;;5046880;28;20029;-90
2022/05/21 17:01:47;;;;;;;3.20;1.35;;;21.50;60.80;;;;;;5053759;28;20434;-90
2022/05/21 17:04:15;;;;;;;2.35;1.15;;;21.50;61.20;;;;;;5014246;28;20025;-90
2022/05/21 17:06:41;;;;;;;2.05;1.08;;;21.50;61.30;;;;;;5014638;28;20178;-90
2022/05/21 17:09:08;;;;;;;1.73;0.90;;;21.50;61.40;;;;;;5022418;28;20020;-89
2022/05/21 17:11:33;;;;;;;1.60;1.00;;;21.50;61.50;;;;;;5037392;28;20018;-89
2022/05/21 17:13:59;;;;;;;2.22;1.13;;;21.50;61.40;;;;;;5050814;28;20480;-90
2022/05/21 17:16:25;;;;;;;3.33;0.90;;;21.60;61.40;;;;;;5033515;28;20463;-90
2022/05/21 17:18:51;;;;;;;2.25;0.82;;;21.50;61.30;;;;;;5034570;28;20088;-89
2022/05/21 17:21:17;;;;;;;1.02;0.70;;;21.50;61.20;;;;;;5052805;28;20202;-90
2022/05/21 17:23:42;;;;;;;1.15;0.70;;;21.50;61.30;;;;;;5043581;28;20486;-90
2022/05/21 17:26:08;;;;;;;2.38;1.00;;;21.40;61.30;;;;;;5050480;28;20029;-90
2022/05/21 17:31:18;;;;;;;3.65;0.80;;;21.40;61.40;;;;;;5066845;28;20032;-89
2022/05/21 17:33:44;;;;;;;4.97;2.45;;;21.30;61.30;;;;;;5017767;28;20021;-89
2022/05/21 17:36:10;;;;;;;4.95;1.70;;;21.30;61.30;;;;;;5037203;28;20110;-90
2022/05/21 17:38:39;;;;;;;2.88;1.10;;;21.30;61.50;;;;;;5021654;28;20090;-89
2022/05/21 17:41:05;;;;;;;3.63;1.48;;;21.30;61.60;;;;;;5024189;28;20037;-91
2022/05/21 17:43:33;;;;;;;2.75;0.80;;;21.20;61.60;;;;;;5017655;28;20421;-84
2022/05/21 17:45:59;;;;;;;2.42;0.90;;;21.20;61.80;;;;;;5023391;28;20024;-85
2022/05/21 17:48:25;;;;;;;0.77;0.63;;;21.20;61.70;;;;;;5052649;28;20083;-86